sim
Sign-in with your pilot id or email,
or register
Callsign
Passwort

Schedule Details

Flight Number: RYR4774 (2)
Departure: Milan Bergamo Il Caravaggio International Airport (LIME) at 13:15
Arrival: Thessaloniki International Airport (LGTS) at 15:20
Route: Ryanair Passenger Schedule. Enter filed route here before submitting Pirep.

Weather Information
Getting current METAR information for LIME 211750Z 19004KT CAVOK 29/17 Q1018 NOSIG
Getting current METAR information for LGTS 211750Z 16005KT CAVOK 29/13 Q1016 NOSIG

Schedule Frequency

Route Map